Airport View

Enter AWOS ICAO identifier for current METAR.

ex. KFNL

KAKO 190553Z AUTO 11006KT 10SM CLR 02/M04 A3022 RMK AO2 SLP231 T00171039 10133 20011 53012

19 Apr 2019 06:50

Frequency: 135.475

Phone: 970-345-2320

Other Area AWOS: K2V6 - KSTK - KFMM - K2V5

TAF KSNY 190524Z 1906/2006 VRB05KT P6SM SCT100 FM191900 31011KT P6SM SKC FM200300 16006KT P6SM SCT150